sensor_id;sensor_type;location;lat;lon;timestamp;pressure;altitude;pressure_sealevel;temperature;humidity
66742;BME280;53654;54.152;19.432;2023-05-08T00:02:15;102921.13;;;9.66;44.00
66742;BME280;53654;54.152;19.432;2023-05-08T00:04:43;102920.16;;;9.63;44.12
66742;BME280;53654;54.152;19.432;2023-05-08T00:07:11;102921.29;;;9.59;44.07
66742;BME280;53654;54.152;19.432;2023-05-08T00:09:39;102924.30;;;9.56;44.15
66742;BME280;53654;54.152;19.432;2023-05-08T00:12:07;102920.40;;;9.53;44.16
66742;BME280;53654;54.152;19.432;2023-05-08T00:14:35;102924.38;;;9.52;44.18
66742;BME280;53654;54.152;19.432;2023-05-08T00:17:03;102924.83;;;9.50;44.29
66742;BME280;53654;54.152;19.432;2023-05-08T00:19:32;102924.64;;;9.50;44.26
66742;BME280;53654;54.152;19.432;2023-05-08T00:22:00;102925.34;;;9.50;44.27
66742;BME280;53654;54.152;19.432;2023-05-08T00:24:28;102918.05;;;9.51;44.13
66742;BME280;53654;54.152;19.432;2023-05-08T00:26:56;102918.25;;;9.51;44.15
66742;BME280;53654;54.152;19.432;2023-05-08T00:29:24;102920.67;;;9.51;43.94
66742;BME280;53654;54.152;19.432;2023-05-08T00:31:52;102920.04;;;9.53;43.97
66742;BME280;53654;54.152;19.432;2023-05-08T00:34:20;102918.13;;;9.53;43.82
66742;BME280;53654;54.152;19.432;2023-05-08T00:36:48;102919.92;;;9.55;43.50
66742;BME280;53654;54.152;19.432;2023-05-08T00:39:16;102920.71;;;9.58;43.48
66742;BME280;53654;54.152;19.432;2023-05-08T00:41:45;102924.77;;;9.59;43.40
66742;BME280;53654;54.152;19.432;2023-05-08T00:44:13;102929.50;;;9.60;43.30
66742;BME280;53654;54.152;19.432;2023-05-08T00:46:42;102927.73;;;9.59;43.45
66742;BME280;53654;54.152;19.432;2023-05-08T00:49:11;102931.67;;;9.63;43.38
66742;BME280;53654;54.152;19.432;2023-05-08T00:51:43;102933.22;;;9.62;43.37
66742;BME280;53654;54.152;19.432;2023-05-08T00:54:11;102936.99;;;9.60;43.34
66742;BME280;53654;54.152;19.432;2023-05-08T00:56:40;102935.73;;;9.59;43.54
66742;BME280;53654;54.152;19.432;2023-05-08T00:59:12;102937.29;;;9.58;43.45
66742;BME280;53654;54.152;19.432;2023-05-08T01:01:42;102938.45;;;9.57;43.52
66742;BME280;53654;54.152;19.432;2023-05-08T01:04:10;102942.60;;;9.56;43.43
66742;BME280;53654;54.152;19.432;2023-05-08T01:06:38;102944.38;;;9.57;43.60
66742;BME280;53654;54.152;19.432;2023-05-08T01:09:06;102947.15;;;9.56;43.57
66742;BME280;53654;54.152;19.432;2023-05-08T01:12:06;102950.23;;;9.54;43.61
66742;BME280;53654;54.152;19.432;2023-05-08T01:19:54;102956.41;;;9.46;43.79
66742;BME280;53654;54.152;19.432;2023-05-08T01:28:27;102957.86;;;9.36;44.13
66742;BME280;53654;54.152;19.432;2023-05-08T01:31:23;102961.69;;;9.31;44.10
66742;BME280;53654;54.152;19.432;2023-05-08T01:34:02;102967.83;;;9.26;44.32
66742;BME280;53654;54.152;19.432;2023-05-08T01:39:44;102968.32;;;9.20;44.45
66742;BME280;53654;54.152;19.432;2023-05-08T01:42:24;102969.23;;;9.16;44.58
66742;BME280;53654;54.152;19.432;2023-05-08T01:44:59;102972.27;;;9.14;44.79
66742;BME280;53654;54.152;19.432;2023-05-08T01:47:29;102968.77;;;9.13;45.01
66742;BME280;53654;54.152;19.432;2023-05-08T01:50:04;102972.48;;;9.15;45.01
66742;BME280;53654;54.152;19.432;2023-05-08T01:52:37;102974.06;;;9.15;44.99
66742;BME280;53654;54.152;19.432;2023-05-08T01:55:19;102977.83;;;9.13;45.19
66742;BME280;53654;54.152;19.432;2023-05-08T01:57:50;102980.55;;;9.11;45.19
66742;BME280;53654;54.152;19.432;2023-05-08T02:00:21;102982.89;;;9.08;45.23
66742;BME280;53654;54.152;19.432;2023-05-08T02:02:51;102980.89;;;9.06;45.28
66742;BME280;53654;54.152;19.432;2023-05-08T02:05:21;102975.45;;;8.99;45.41
66742;BME280;53654;54.152;19.432;2023-05-08T02:07:51;102971.03;;;8.92;45.36
66742;BME280;53654;54.152;19.432;2023-05-08T02:10:21;102978.84;;;8.91;45.41
66742;BME280;53654;54.152;19.432;2023-05-08T02:12:52;102977.85;;;8.88;45.51
66742;BME280;53654;54.152;19.432;2023-05-08T02:15:23;102982.66;;;8.86;45.56
66742;BME280;53654;54.152;19.432;2023-05-08T02:17:54;102979.82;;;8.84;45.60
66742;BME280;53654;54.152;19.432;2023-05-08T02:20:22;102976.04;;;8.86;45.66
66742;BME280;53654;54.152;19.432;2023-05-08T02:22:51;102984.45;;;8.87;45.72
66742;BME280;53654;54.152;19.432;2023-05-08T02:25:20;102982.77;;;8.89;45.66
66742;BME280;53654;54.152;19.432;2023-05-08T02:27:49;102978.58;;;8.89;45.70
66742;BME280;53654;54.152;19.432;2023-05-08T02:30:21;102983.59;;;8.88;45.87
66742;BME280;53654;54.152;19.432;2023-05-08T02:32:52;102982.89;;;8.83;45.94
66742;BME280;53654;54.152;19.432;2023-05-08T02:35:28;102982.40;;;8.79;45.99
66742;BME280;53654;54.152;19.432;2023-05-08T02:37:57;102985.72;;;8.73;46.06
66742;BME280;53654;54.152;19.432;2023-05-08T02:40:28;102985.41;;;8.69;46.48
66742;BME280;53654;54.152;19.432;2023-05-08T02:42:56;102990.93;;;8.68;46.53
66742;BME280;53654;54.152;19.432;2023-05-08T02:45:28;102990.52;;;8.66;46.51
66742;BME280;53654;54.152;19.432;2023-05-08T02:48:13;102993.02;;;8.63;46.87
66742;BME280;53654;54.152;19.432;2023-05-08T02:50:56;102986.98;;;8.59;47.43
66742;BME280;53654;54.152;19.432;2023-05-08T02:53:33;102985.81;;;8.56;47.66
66742;BME280;53654;54.152;19.432;2023-05-08T02:56:09;102988.73;;;8.55;47.60
66742;BME280;53654;54.152;19.432;2023-05-08T02:58:46;102988.80;;;8.52;47.35
66742;BME280;53654;54.152;19.432;2023-05-08T03:01:28;102991.64;;;8.49;47.38
66742;BME280;53654;54.152;19.432;2023-05-08T03:04:05;102993.69;;;8.43;47.56
66742;BME280;53654;54.152;19.432;2023-05-08T03:06:41;102995.96;;;8.38;47.58
66742;BME280;53654;54.152;19.432;2023-05-08T03:09:19;102992.54;;;8.35;47.68
66742;BME280;53654;54.152;19.432;2023-05-08T03:11:49;102995.03;;;8.29;47.86
66742;BME280;53654;54.152;19.432;2023-05-08T03:14:23;102996.24;;;8.28;47.96
66742;BME280;53654;54.152;19.432;2023-05-08T03:16:54;102996.25;;;8.29;48.26
66742;BME280;53654;54.152;19.432;2023-05-08T03:19:31;102993.98;;;8.28;48.01
66742;BME280;53654;54.152;19.432;2023-05-08T03:22:06;102996.84;;;8.26;48.13
66742;BME280;53654;54.152;19.432;2023-05-08T03:24:35;102999.57;;;8.24;48.14
66742;BME280;53654;54.152;19.432;2023-05-08T03:27:06;103001.94;;;8.27;48.20
66742;BME280;53654;54.152;19.432;2023-05-08T03:29:37;103002.32;;;8.28;48.32
66742;BME280;53654;54.152;19.432;2023-05-08T03:32:07;103007.69;;;8.27;48.20
66742;BME280;53654;54.152;19.432;2023-05-08T03:34:36;103005.63;;;8.28;48.46
66742;BME280;53654;54.152;19.432;2023-05-08T03:37:06;103009.13;;;8.29;48.35
66742;BME280;53654;54.152;19.432;2023-05-08T03:39:34;103011.97;;;8.30;48.36
66742;BME280;53654;54.152;19.432;2023-05-08T03:42:02;103014.17;;;8.33;49.28
66742;BME280;53654;54.152;19.432;2023-05-08T03:44:31;103015.77;;;8.34;50.12
66742;BME280;53654;54.152;19.432;2023-05-08T03:47:01;103017.88;;;8.34;49.86
66742;BME280;53654;54.152;19.432;2023-05-08T03:49:31;103017.08;;;8.36;49.63
66742;BME280;53654;54.152;19.432;2023-05-08T03:52:01;103017.64;;;8.37;50.26
66742;BME280;53654;54.152;19.432;2023-05-08T03:54:29;103019.25;;;8.38;49.72
66742;BME280;53654;54.152;19.432;2023-05-08T03:56:57;103017.48;;;8.42;49.89
66742;BME280;53654;54.152;19.432;2023-05-08T03:59:32;103019.35;;;8.46;50.21
66742;BME280;53654;54.152;19.432;2023-05-08T04:02:18;103018.93;;;8.49;50.39
66742;BME280;53654;54.152;19.432;2023-05-08T04:04:54;103020.29;;;8.52;50.32
66742;BME280;53654;54.152;19.432;2023-05-08T04:07:31;103017.06;;;8.54;50.57
66742;BME280;53654;54.152;19.432;2023-05-08T04:12:53;103023.51;;;8.64;50.79
66742;BME280;53654;54.152;19.432;2023-05-08T04:15:28;103025.95;;;8.69;51.23
66742;BME280;53654;54.152;19.432;2023-05-08T04:18:11;103031.79;;;8.78;51.29
66742;BME280;53654;54.152;19.432;2023-05-08T04:20:46;103031.80;;;8.88;52.12
66742;BME280;53654;54.152;19.432;2023-05-08T04:23:17;103033.48;;;8.96;51.41
66742;BME280;53654;54.152;19.432;2023-05-08T04:25:48;103037.84;;;9.16;51.21
66742;BME280;53654;54.152;19.432;2023-05-08T04:28:19;103036.52;;;9.39;50.35
66742;BME280;53654;54.152;19.432;2023-05-08T04:30:49;103034.23;;;9.66;50.14
66742;BME280;53654;54.152;19.432;2023-05-08T04:33:18;103041.52;;;10.50;49.46
66742;BME280;53654;54.152;19.432;2023-05-08T04:35:47;103040.12;;;11.57;47.65
66742;BME280;53654;54.152;19.432;2023-05-08T04:38:17;103035.92;;;12.70;44.01
66742;BME280;53654;54.152;19.432;2023-05-08T04:40:45;103037.98;;;13.80;41.43
66742;BME280;53654;54.152;19.432;2023-05-08T04:43:13;103035.06;;;14.80;38.95
66742;BME280;53654;54.152;19.432;2023-05-08T04:45:42;103034.96;;;15.68;37.27
66742;BME280;53654;54.152;19.432;2023-05-08T04:48:10;103031.90;;;16.56;35.68
66742;BME280;53654;54.152;19.432;2023-05-08T04:50:38;103035.89;;;17.43;34.38
66742;BME280;53654;54.152;19.432;2023-05-08T04:53:06;103038.03;;;18.20;32.89
66742;BME280;53654;54.152;19.432;2023-05-08T04:55:34;103033.10;;;18.87;31.34
66742;BME280;53654;54.152;19.432;2023-05-08T04:58:03;103032.95;;;19.50;30.28
66742;BME280;53654;54.152;19.432;2023-05-08T05:00:31;103035.41;;;20.03;29.34
66742;BME280;53654;54.152;19.432;2023-05-08T05:02:59;103035.52;;;20.53;28.12
66742;BME280;53654;54.152;19.432;2023-05-08T05:05:27;103036.18;;;20.94;27.05
66742;BME280;53654;54.152;19.432;2023-05-08T05:07:55;103036.89;;;21.29;26.46
66742;BME280;53654;54.152;19.432;2023-05-08T05:10:24;103040.73;;;21.52;25.81
66742;BME280;53654;54.152;19.432;2023-05-08T05:12:52;103039.39;;;21.68;25.50
66742;BME280;53654;54.152;19.432;2023-05-08T05:15:21;103041.75;;;21.84;25.44
66742;BME280;53654;54.152;19.432;2023-05-08T05:17:49;103044.42;;;21.93;25.26
66742;BME280;53654;54.152;19.432;2023-05-08T05:20:18;103048.36;;;21.91;25.03
66742;BME280;53654;54.152;19.432;2023-05-08T05:22:46;103046.20;;;21.83;25.30
66742;BME280;53654;54.152;19.432;2023-05-08T05:25:14;103048.20;;;21.72;25.52
66742;BME280;53654;54.152;19.432;2023-05-08T05:27:43;103052.48;;;21.80;25.44
66742;BME280;53654;54.152;19.432;2023-05-08T05:30:11;103056.04;;;21.99;25.23
66742;BME280;53654;54.152;19.432;2023-05-08T05:32:40;103056.48;;;22.22;25.35
66742;BME280;53654;54.152;19.432;2023-05-08T05:35:09;103061.91;;;22.42;25.65
66742;BME280;53654;54.152;19.432;2023-05-08T05:37:38;103062.45;;;22.50;24.79
66742;BME280;53654;54.152;19.432;2023-05-08T05:40:06;103062.45;;;22.66;24.77
66742;BME280;53654;54.152;19.432;2023-05-08T05:42:35;103062.20;;;22.78;24.69
66742;BME280;53654;54.152;19.432;2023-05-08T05:45:04;103057.52;;;22.80;24.44
66742;BME280;53654;54.152;19.432;2023-05-08T05:47:33;103054.92;;;22.85;24.74
66742;BME280;53654;54.152;19.432;2023-05-08T05:50:02;103059.04;;;22.92;24.78
66742;BME280;53654;54.152;19.432;2023-05-08T05:52:30;103058.81;;;22.86;24.62
66742;BME280;53654;54.152;19.432;2023-05-08T05:55:00;103063.80;;;22.53;25.22
66742;BME280;53654;54.152;19.432;2023-05-08T05:57:28;103059.33;;;22.22;25.83
66742;BME280;53654;54.152;19.432;2023-05-08T05:59:56;103062.08;;;21.89;26.73
66742;BME280;53654;54.152;19.432;2023-05-08T06:02:26;103059.27;;;21.59;26.98
66742;BME280;53654;54.152;19.432;2023-05-08T06:04:55;103060.46;;;21.62;27.16
66742;BME280;53654;54.152;19.432;2023-05-08T06:07:23;103063.46;;;21.82;27.07
66742;BME280;53654;54.152;19.432;2023-05-08T06:09:51;103068.17;;;22.05;26.82
66742;BME280;53654;54.152;19.432;2023-05-08T06:12:19;103063.89;;;22.25;26.73
66742;BME280;53654;54.152;19.432;2023-05-08T06:14:47;103066.89;;;22.42;26.47
66742;BME280;53654;54.152;19.432;2023-05-08T06:17:18;103067.58;;;22.43;26.76
66742;BME280;53654;54.152;19.432;2023-05-08T06:19:47;103064.34;;;22.53;26.72
66742;BME280;53654;54.152;19.432;2023-05-08T06:22:21;103068.18;;;22.72;26.49
66742;BME280;53654;54.152;19.432;2023-05-08T06:24:52;103063.75;;;22.88;26.21
66742;BME280;53654;54.152;19.432;2023-05-08T06:27:20;103060.58;;;23.02;26.56
66742;BME280;53654;54.152;19.432;2023-05-08T06:29:52;103064.59;;;23.12;26.23
66742;BME280;53654;54.152;19.432;2023-05-08T06:32:20;103064.92;;;23.21;25.96
66742;BME280;53654;54.152;19.432;2023-05-08T06:34:48;103066.75;;;23.32;25.88
66742;BME280;53654;54.152;19.432;2023-05-08T06:37:16;103071.29;;;23.43;26.19
66742;BME280;53654;54.152;19.432;2023-05-08T06:39:44;103072.74;;;23.42;25.82
66742;BME280;53654;54.152;19.432;2023-05-08T06:42:15;103070.84;;;23.04;26.51
66742;BME280;53654;54.152;19.432;2023-05-08T06:44:45;103079.10;;;22.62;27.74
66742;BME280;53654;54.152;19.432;2023-05-08T06:47:13;103075.44;;;22.25;28.10
66742;BME280;53654;54.152;19.432;2023-05-08T06:49:41;103075.90;;;21.73;28.25
66742;BME280;53654;54.152;19.432;2023-05-08T06:52:09;103077.16;;;21.30;28.95
66742;BME280;53654;54.152;19.432;2023-05-08T06:54:37;103080.23;;;20.91;29.50
66742;BME280;53654;54.152;19.432;2023-05-08T06:57:05;103078.80;;;20.52;30.01
66742;BME280;53654;54.152;19.432;2023-05-08T06:59:35;103074.88;;;20.23;30.63
66742;BME280;53654;54.152;19.432;2023-05-08T07:02:03;103079.38;;;20.01;31.36
66742;BME280;53654;54.152;19.432;2023-05-08T07:04:31;103080.27;;;19.84;31.41
66742;BME280;53654;54.152;19.432;2023-05-08T07:06:59;103076.73;;;19.66;32.24
66742;BME280;53654;54.152;19.432;2023-05-08T07:09:28;103078.66;;;19.44;32.48
66742;BME280;53654;54.152;19.432;2023-05-08T07:11:56;103079.54;;;19.24;32.29
66742;BME280;53654;54.152;19.432;2023-05-08T07:14:24;103079.47;;;19.11;33.54
66742;BME280;53654;54.152;19.432;2023-05-08T07:16:52;103089.80;;;19.00;33.84
66742;BME280;53654;54.152;19.432;2023-05-08T07:19:20;103090.77;;;18.85;34.21
66742;BME280;53654;54.152;19.432;2023-05-08T07:21:49;103093.15;;;18.71;34.40
66742;BME280;53654;54.152;19.432;2023-05-08T07:24:17;103092.13;;;18.60;35.25
66742;BME280;53654;54.152;19.432;2023-05-08T07:26:45;103093.58;;;18.49;34.82
66742;BME280;53654;54.152;19.432;2023-05-08T07:29:13;103089.73;;;18.38;35.03
66742;BME280;53654;54.152;19.432;2023-05-08T07:31:41;103088.91;;;18.23;34.85
66742;BME280;53654;54.152;19.432;2023-05-08T07:34:10;103084.36;;;18.09;36.37
66742;BME280;53654;54.152;19.432;2023-05-08T07:36:38;103078.02;;;18.00;35.31
66742;BME280;53654;54.152;19.432;2023-05-08T07:39:07;103077.88;;;17.87;35.03
66742;BME280;53654;54.152;19.432;2023-05-08T07:41:35;103078.95;;;17.79;35.93
66742;BME280;53654;54.152;19.432;2023-05-08T07:44:08;103082.48;;;17.68;35.58
66742;BME280;53654;54.152;19.432;2023-05-08T07:46:36;103085.47;;;17.60;36.35
66742;BME280;53654;54.152;19.432;2023-05-08T07:49:04;103087.06;;;17.54;36.15
66742;BME280;53654;54.152;19.432;2023-05-08T07:51:33;103084.95;;;17.51;35.66
66742;BME280;53654;54.152;19.432;2023-05-08T07:54:01;103085.29;;;17.49;36.42
66742;BME280;53654;54.152;19.432;2023-05-08T07:56:29;103082.12;;;17.50;36.31
66742;BME280;53654;54.152;19.432;2023-05-08T07:58:58;103079.65;;;17.47;35.49
66742;BME280;53654;54.152;19.432;2023-05-08T08:01:26;103081.59;;;17.48;36.53
66742;BME280;53654;54.152;19.432;2023-05-08T08:03:54;103078.23;;;17.42;36.29
66742;BME280;53654;54.152;19.432;2023-05-08T08:06:22;103080.00;;;17.31;35.62
66742;BME280;53654;54.152;19.432;2023-05-08T08:08:50;103083.52;;;17.23;35.70
66742;BME280;53654;54.152;19.432;2023-05-08T08:11:18;103088.99;;;17.19;35.45
66742;BME280;53654;54.152;19.432;2023-05-08T08:13:46;103085.10;;;17.13;34.04
66742;BME280;53654;54.152;19.432;2023-05-08T08:16:14;103078.74;;;17.05;34.65
66742;BME280;53654;54.152;19.432;2023-05-08T08:18:42;103082.27;;;17.04;34.44
66742;BME280;53654;54.152;19.432;2023-05-08T08:21:10;103079.45;;;17.03;34.62
66742;BME280;53654;54.152;19.432;2023-05-08T08:23:38;103076.97;;;17.02;35.08
66742;BME280;53654;54.152;19.432;2023-05-08T08:26:06;103077.68;;;17.05;35.59
66742;BME280;53654;54.152;19.432;2023-05-08T08:28:34;103074.34;;;17.14;33.92
66742;BME280;53654;54.152;19.432;2023-05-08T08:31:02;103072.94;;;17.24;33.27
66742;BME280;53654;54.152;19.432;2023-05-08T08:33:31;103069.77;;;17.33;32.07
66742;BME280;53654;54.152;19.432;2023-05-08T08:35:59;103071.71;;;17.39;29.96
66742;BME280;53654;54.152;19.432;2023-05-08T08:38:27;103067.48;;;17.44;29.79
66742;BME280;53654;54.152;19.432;2023-05-08T08:40:55;103065.53;;;17.48;29.90
66742;BME280;53654;54.152;19.432;2023-05-08T08:43:23;103064.13;;;17.51;28.97
66742;BME280;53654;54.152;19.432;2023-05-08T08:45:51;103060.06;;;17.62;29.62
66742;BME280;53654;54.152;19.432;2023-05-08T08:48:20;103062.89;;;17.81;29.50
66742;BME280;53654;54.152;19.432;2023-05-08T08:50:52;103065.67;;;17.97;27.18
66742;BME280;53654;54.152;19.432;2023-05-08T08:53:26;103062.46;;;18.08;27.84
66742;BME280;53654;54.152;19.432;2023-05-08T08:55:57;103059.75;;;18.25;28.33
66742;BME280;53654;54.152;19.432;2023-05-08T08:58:40;103060.56;;;18.41;27.54
66742;BME280;53654;54.152;19.432;2023-05-08T09:01:15;103056.05;;;18.63;28.15
66742;BME280;53654;54.152;19.432;2023-05-08T09:03:43;103061.81;;;18.80;27.58
66742;BME280;53654;54.152;19.432;2023-05-08T09:06:15;103054.81;;;18.93;27.72
66742;BME280;53654;54.152;19.432;2023-05-08T09:08:44;103049.73;;;19.11;27.29
66742;BME280;53654;54.152;19.432;2023-05-08T09:11:12;103050.11;;;19.30;27.27
66742;BME280;53654;54.152;19.432;2023-05-08T09:13:40;103042.88;;;19.49;26.61
66742;BME280;53654;54.152;19.432;2023-05-08T09:16:08;103045.68;;;19.72;26.47
66742;BME280;53654;54.152;19.432;2023-05-08T09:18:36;103046.47;;;19.81;24.10
66742;BME280;53654;54.152;19.432;2023-05-08T09:21:07;103049.27;;;19.85;23.17
66742;BME280;53654;54.152;19.432;2023-05-08T09:23:35;103052.02;;;19.93;23.88
66742;BME280;53654;54.152;19.432;2023-05-08T09:26:03;103044.95;;;20.06;25.04
66742;BME280;53654;54.152;19.432;2023-05-08T09:28:31;103042.64;;;20.21;25.03
66742;BME280;53654;54.152;19.432;2023-05-08T09:30:59;103039.31;;;20.32;23.80
66742;BME280;53654;54.152;19.432;2023-05-08T09:33:28;103041.00;;;20.41;23.79
66742;BME280;53654;54.152;19.432;2023-05-08T09:35:56;103041.13;;;20.46;24.05
66742;BME280;53654;54.152;19.432;2023-05-08T09:38:31;103038.47;;;20.45;24.28
66742;BME280;53654;54.152;19.432;2023-05-08T09:43:35;103034.73;;;20.31;24.03
66742;BME280;53654;54.152;19.432;2023-05-08T09:48:46;103036.39;;;20.11;24.27
66742;BME280;53654;54.152;19.432;2023-05-08T09:51:14;103033.77;;;20.07;24.08
66742;BME280;53654;54.152;19.432;2023-05-08T09:53:42;103029.81;;;20.12;23.98
66742;BME280;53654;54.152;19.432;2023-05-08T09:56:10;103027.60;;;20.19;24.35
66742;BME280;53654;54.152;19.432;2023-05-08T09:58:40;103031.25;;;20.26;23.60
66742;BME280;53654;54.152;19.432;2023-05-08T10:03:56;103025.72;;;20.00;23.28
66742;BME280;53654;54.152;19.432;2023-05-08T10:06:24;103027.31;;;20.00;24.95
66742;BME280;53654;54.152;19.432;2023-05-08T10:09:06;103022.49;;;20.02;23.91
66742;BME280;53654;54.152;19.432;2023-05-08T10:11:33;103022.00;;;20.00;23.80
66742;BME280;53654;54.152;19.432;2023-05-08T10:14:02;103018.79;;;20.02;25.18
66742;BME280;53654;54.152;19.432;2023-05-08T10:16:30;103021.21;;;20.06;24.19
66742;BME280;53654;54.152;19.432;2023-05-08T10:19:09;103016.23;;;20.07;23.71
66742;BME280;53654;54.152;19.432;2023-05-08T10:21:41;103016.08;;;20.06;24.73
66742;BME280;53654;54.152;19.432;2023-05-08T10:24:27;103016.88;;;20.12;24.85
66742;BME280;53654;54.152;19.432;2023-05-08T10:27:19;103015.13;;;20.11;23.32
66742;BME280;53654;54.152;19.432;2023-05-08T10:29:56;103008.20;;;19.99;23.82
66742;BME280;53654;54.152;19.432;2023-05-08T10:32:32;103009.58;;;19.87;24.69
66742;BME280;53654;54.152;19.432;2023-05-08T10:35:03;103007.34;;;19.80;26.34
66742;BME280;53654;54.152;19.432;2023-05-08T10:37:32;103007.75;;;19.76;26.02
66742;BME280;53654;54.152;19.432;2023-05-08T10:40:01;103009.19;;;19.74;27.59
66742;BME280;53654;54.152;19.432;2023-05-08T10:42:30;103003.02;;;19.72;25.29
66742;BME280;53654;54.152;19.432;2023-05-08T10:44:58;103002.29;;;19.74;25.93
66742;BME280;53654;54.152;19.432;2023-05-08T10:53:41;102994.05;;;19.46;25.75
66742;BME280;53654;54.152;19.432;2023-05-08T10:56:10;102994.65;;;19.39;25.49
66742;BME280;53654;54.152;19.432;2023-05-08T10:58:39;102993.13;;;19.32;24.26
66742;BME280;53654;54.152;19.432;2023-05-08T11:06:09;102978.64;;;19.10;25.14
66742;BME280;53654;54.152;19.432;2023-05-08T11:08:48;102975.10;;;19.09;27.13
66742;BME280;53654;54.152;19.432;2023-05-08T11:11:26;102978.15;;;19.05;26.21
66742;BME280;53654;54.152;19.432;2023-05-08T11:14:12;102970.09;;;18.95;26.56
66742;BME280;53654;54.152;19.432;2023-05-08T11:19:23;102974.38;;;18.90;26.73
66742;BME280;53654;54.152;19.432;2023-05-08T11:24:53;102964.95;;;18.74;26.05
66742;BME280;53654;54.152;19.432;2023-05-08T11:30:36;102961.09;;;18.69;26.30
66742;BME280;53654;54.152;19.432;2023-05-08T11:33:11;102960.23;;;18.66;25.47
66742;BME280;53654;54.152;19.432;2023-05-08T11:46:01;102958.14;;;18.58;25.33
66742;BME280;53654;54.152;19.432;2023-05-08T11:48:31;102953.20;;;18.57;25.65
66742;BME280;53654;54.152;19.432;2023-05-08T11:51:00;102949.30;;;18.61;27.47
66742;BME280;53654;54.152;19.432;2023-05-08T11:53:30;102948.77;;;18.64;26.98
66742;BME280;53654;54.152;19.432;2023-05-08T11:55:58;102950.66;;;18.69;27.36
66742;BME280;53654;54.152;19.432;2023-05-08T11:58:27;102952.75;;;18.73;26.57
66742;BME280;53654;54.152;19.432;2023-05-08T12:00:55;102952.92;;;18.75;26.77
66742;BME280;53654;54.152;19.432;2023-05-08T12:03:24;102952.24;;;18.72;26.06
66742;BME280;53654;54.152;19.432;2023-05-08T12:05:56;102951.02;;;18.71;25.86
66742;BME280;53654;54.152;19.432;2023-05-08T12:08:25;102951.71;;;18.71;26.98
66742;BME280;53654;54.152;19.432;2023-05-08T12:10:55;102948.52;;;18.72;27.23
66742;BME280;53654;54.152;19.432;2023-05-08T12:13:28;102945.73;;;18.68;25.28
66742;BME280;53654;54.152;19.432;2023-05-08T12:15:58;102944.16;;;18.65;25.47
66742;BME280;53654;54.152;19.432;2023-05-08T12:18:27;102943.80;;;18.65;26.20
66742;BME280;53654;54.152;19.432;2023-05-08T12:21:00;102943.77;;;18.68;25.61
66742;BME280;53654;54.152;19.432;2023-05-08T12:23:28;102941.99;;;18.70;26.76
66742;BME280;53654;54.152;19.432;2023-05-08T12:26:00;102938.30;;;18.69;27.21
66742;BME280;53654;54.152;19.432;2023-05-08T12:28:29;102939.40;;;18.61;27.46
66742;BME280;53654;54.152;19.432;2023-05-08T12:30:59;102941.71;;;18.56;27.80
66742;BME280;53654;54.152;19.432;2023-05-08T12:33:28;102942.11;;;18.51;27.62
66742;BME280;53654;54.152;19.432;2023-05-08T12:35:57;102944.96;;;18.45;27.53
66742;BME280;53654;54.152;19.432;2023-05-08T12:38:25;102942.54;;;18.39;27.42
66742;BME280;53654;54.152;19.432;2023-05-08T12:40:54;102944.15;;;18.35;27.84
66742;BME280;53654;54.152;19.432;2023-05-08T12:43:33;102936.59;;;18.29;28.27
66742;BME280;53654;54.152;19.432;2023-05-08T12:46:03;102939.48;;;18.17;28.21
66742;BME280;53654;54.152;19.432;2023-05-08T12:48:31;102942.54;;;18.07;28.02
66742;BME280;53654;54.152;19.432;2023-05-08T12:51:02;102940.80;;;17.99;28.21
66742;BME280;53654;54.152;19.432;2023-05-08T12:53:31;102942.96;;;17.93;28.77
66742;BME280;53654;54.152;19.432;2023-05-08T12:56:02;102939.09;;;17.89;28.53
66742;BME280;53654;54.152;19.432;2023-05-08T12:58:34;102935.94;;;17.84;28.77
66742;BME280;53654;54.152;19.432;2023-05-08T13:01:10;102932.78;;;17.78;28.64
66742;BME280;53654;54.152;19.432;2023-05-08T13:03:42;102930.69;;;17.69;28.56
66742;BME280;53654;54.152;19.432;2023-05-08T13:06:20;102927.86;;;17.66;28.64
66742;BME280;53654;54.152;19.432;2023-05-08T13:08:53;102927.14;;;17.65;28.90
66742;BME280;53654;54.152;19.432;2023-05-08T13:11:29;102926.27;;;17.64;28.91
66742;BME280;53654;54.152;19.432;2023-05-08T13:13:58;102922.04;;;17.59;28.95
66742;BME280;53654;54.152;19.432;2023-05-08T13:16:26;102926.65;;;17.54;29.00
66742;BME280;53654;54.152;19.432;2023-05-08T13:18:54;102921.20;;;17.47;28.90
66742;BME280;53654;54.152;19.432;2023-05-08T13:21:22;102919.09;;;17.43;29.57
66742;BME280;53654;54.152;19.432;2023-05-08T13:23:53;102917.52;;;17.40;29.71
66742;BME280;53654;54.152;19.432;2023-05-08T13:26:21;102909.94;;;17.37;29.53
66742;BME280;53654;54.152;19.432;2023-05-08T13:28:49;102913.63;;;17.40;29.38
66742;BME280;53654;54.152;19.432;2023-05-08T13:31:17;102906.05;;;17.41;29.39
66742;BME280;53654;54.152;19.432;2023-05-08T13:33:44;102913.10;;;17.42;29.52
66742;BME280;53654;54.152;19.432;2023-05-08T13:36:12;102910.45;;;17.45;29.33
66742;BME280;53654;54.152;19.432;2023-05-08T13:38:40;102901.09;;;17.46;29.46
66742;BME280;53654;54.152;19.432;2023-05-08T13:41:08;102895.63;;;17.43;29.20
66742;BME280;53654;54.152;19.432;2023-05-08T13:43:36;102898.62;;;17.45;29.37
66742;BME280;53654;54.152;19.432;2023-05-08T13:46:04;102895.27;;;17.49;29.03
66742;BME280;53654;54.152;19.432;2023-05-08T13:48:33;102897.89;;;17.53;28.98
66742;BME280;53654;54.152;19.432;2023-05-08T13:51:01;102893.81;;;17.58;28.80
66742;BME280;53654;54.152;19.432;2023-05-08T13:53:29;102893.27;;;17.59;29.32
66742;BME280;53654;54.152;19.432;2023-05-08T13:55:57;102894.68;;;17.62;28.50